Time;durP1;ratioP1;P1;durP2;ratioP2;P2;SDS_P1;SDS_P2;PMS_P1;PMS_P2;Temp;Humidity;BMP_temperature;BMP_pressure;BME280_temperature;BME280_humidity;BME280_pressure;Samples;Min_cycle;Max_cycle;Signal;HPM_P1;HPM_P2
2022/08/04 00:02:20;;;;;;;;;;;;;;;14.91;100.00;100552.19;5081198;28;20388;-85
2022/08/04 00:05:02;;;;;;;;;;;;;;;14.96;100.00;100547.50;5059439;28;19931;-85
2022/08/04 00:07:33;;;;;;;;;;;;;;;14.94;100.00;100552.88;5089395;28;20374;-85
2022/08/04 00:10:12;;;;;;;;;;;;;;;14.89;100.00;100544.38;5085218;28;19925;-86
2022/08/04 00:12:42;;;;;;;;;;;;;;;14.98;100.00;100548.28;5071016;28;19933;-85
2022/08/04 00:15:10;;;;;;;;;;;;;;;14.90;100.00;100545.22;5059712;28;19931;-85
2022/08/04 00:18:03;;;;;;;;;;;;;;;14.78;100.00;100552.94;5064686;28;20302;-85
2022/08/04 00:20:31;;;;;;;;;;;;;;;14.91;100.00;100545.13;5085593;28;20305;-85
2022/08/04 00:22:58;;;;;;;;;;;;;;;14.98;100.00;100550.91;5063266;28;19930;-85
2022/08/04 00:25:25;;;;;;;;;;;;;;;15.09;100.00;100545.84;5060226;28;19995;-84
2022/08/04 00:27:53;;;;;;;;;;;;;;;14.95;100.00;100545.81;5064713;28;19936;-84
2022/08/04 00:30:20;;;;;;;;;;;;;;;14.73;100.00;100544.44;5068514;28;20429;-84
2022/08/04 00:32:47;;;;;;;;;;;;;;;14.70;100.00;100547.25;5060448;28;20342;-84
2022/08/04 00:35:14;;;;;;;;;;;;;;;14.68;100.00;100543.84;5062767;28;19974;-84
2022/08/04 00:37:43;;;;;;;;;;;;;;;14.95;100.00;100536.09;5064696;28;19935;-85
2022/08/04 00:40:33;;;;;;;;;;;;;;;14.99;100.00;100529.69;5072438;28;20318;-84
2022/08/04 00:43:08;;;;;;;;;;;;;;;14.99;100.00;100524.44;5053281;28;19925;-84
2022/08/04 00:45:47;;;;;;;;;;;;;;;14.95;100.00;100541.38;5070975;28;19931;-84
2022/08/04 00:48:46;;;;;;;;;;;;;;;14.97;100.00;100533.38;5061222;28;19939;-85
2022/08/04 00:51:22;;;;;;;;;;;;;;;14.92;100.00;100533.63;5074302;28;19947;-85
2022/08/04 00:53:54;;;;;;;;;;;;;;;15.15;100.00;100528.78;5073575;28;19924;-85
2022/08/04 00:56:26;;;;;;;;;;;;;;;15.11;100.00;100532.56;5078074;28;19924;-85
2022/08/04 00:58:53;;;;;;;;;;;;;;;14.96;100.00;100527.28;5082121;28;19925;-83
2022/08/04 01:01:42;;;;;;;;;;;;;;;15.13;100.00;100528.03;5084407;28;20428;-85
2022/08/04 01:04:14;;;;;;;;;;;;;;;15.17;100.00;100526.91;5065985;28;19931;-85
2022/08/04 01:06:59;;;;;;;;;;;;;;;15.11;100.00;100520.22;5073509;28;19928;-85
2022/08/04 01:09:49;;;;;;;;;;;;;;;14.91;100.00;100510.00;5072565;28;20019;-85
2022/08/04 01:12:16;;;;;;;;;;;;;;;14.99;100.00;100513.88;5076099;28;20277;-85
2022/08/04 01:15:01;;;;;;;;;;;;;;;14.91;100.00;100521.41;5074473;28;19925;-86
2022/08/04 01:17:34;;;;;;;;;;;;;;;14.83;100.00;100515.75;5071615;28;19935;-85
2022/08/04 01:20:08;;;;;;;;;;;;;;;15.11;100.00;100514.09;5075218;28;19932;-85
2022/08/04 01:23:13;;;;;;;;;;;;;;;14.99;100.00;100508.59;5062110;28;19924;-85
2022/08/04 01:25:51;;;;;;;;;;;;;;;15.18;100.00;100505.72;4986746;28;19926;-85
2022/08/04 01:28:21;;;;;;;;;;;;;;;15.23;100.00;100504.59;4982910;28;19948;-85
2022/08/04 01:30:54;;;;;;;;;;;;;;;15.21;100.00;100502.06;5032118;28;20362;-85
2022/08/04 01:33:22;;;;;;;;;;;;;;;15.30;100.00;100503.31;5057047;28;19925;-85
2022/08/04 01:35:54;;;;;;;;;;;;;;;15.41;100.00;100507.91;5042836;28;19931;-85
2022/08/04 01:38:21;;;;;;;;;;;;;;;15.32;100.00;100512.81;5046652;28;19932;-85
2022/08/04 01:40:51;;;;;;;;;;;;;;;15.36;100.00;100503.75;5054336;28;19931;-85
2022/08/04 01:43:19;;;;;;;;;;;;;;;15.50;100.00;100502.06;5038589;28;19925;-85
2022/08/04 01:45:49;;;;;;;;;;;;;;;15.68;100.00;100497.44;5042523;28;19931;-85
2022/08/04 01:48:22;;;;;;;;;;;;;;;15.71;100.00;100500.72;5042852;28;19931;-85
2022/08/04 01:50:50;;;;;;;;;;;;;;;15.65;100.00;100505.53;5052179;28;19925;-85
2022/08/04 01:53:19;;;;;;;;;;;;;;;15.51;100.00;100503.75;5053233;28;19925;-85
2022/08/04 01:55:47;;;;;;;;;;;;;;;15.55;100.00;100502.63;5051848;28;20038;-85
2022/08/04 01:58:22;;;;;;;;;;;;;;;15.66;100.00;100504.59;5038509;28;19925;-85
2022/08/04 02:01:01;;;;;;;;;;;;;;;15.53;100.00;100505.38;5042565;28;19931;-85
2022/08/04 02:03:34;;;;;;;;;;;;;;;15.50;100.00;100509.97;5054721;28;19944;-85
2022/08/04 02:06:20;;;;;;;;;;;;;;;15.45;100.00;100507.63;5046178;28;19925;-85
2022/08/04 02:08:52;;;;;;;;;;;;;;;15.47;100.00;100511.00;5056526;28;20023;-85
2022/08/04 02:11:20;;;;;;;;;;;;;;;15.43;100.00;100514.78;5041274;28;19932;-85
2022/08/04 02:13:47;;;;;;;;;;;;;;;15.58;100.00;100512.97;5050736;28;20027;-85
2022/08/04 02:16:32;;;;;;;;;;;;;;;15.71;100.00;100508.63;5055200;28;19925;-85
2022/08/04 02:18:59;;;;;;;;;;;;;;;15.57;100.00;100506.84;5059009;28;19925;-85
2022/08/04 02:21:26;;;;;;;;;;;;;;;15.49;100.00;100510.91;5060635;28;19929;-85
2022/08/04 02:24:10;;;;;;;;;;;;;;;15.59;100.00;100509.41;5042162;28;20414;-85
2022/08/04 02:26:40;;;;;;;;;;;;;;;15.64;100.00;100514.41;5055113;28;19925;-85
2022/08/04 02:29:18;;;;;;;;;;;;;;;15.67;100.00;100509.78;5043868;28;20006;-85
2022/08/04 02:31:50;;;;;;;;;;;;;;;15.69;100.00;100514.97;5050463;28;19924;-85
2022/08/04 02:34:23;;;;;;;;;;;;;;;15.78;100.00;100513.59;5063752;28;19947;-85
2022/08/04 02:36:51;;;;;;;;;;;;;;;15.70;100.00;100512.22;5062315;28;20313;-85
2022/08/04 02:39:18;;;;;;;;;;;;;;;15.77;100.00;100506.59;5040060;28;20374;-85
2022/08/04 02:41:46;;;;;;;;;;;;;;;15.82;100.00;100497.44;5062629;28;19932;-85
2022/08/04 02:44:13;;;;;;;;;;;;;;;15.87;100.00;100494.50;5059971;28;19944;-85
2022/08/04 02:46:40;;;;;;;;;;;;;;;15.44;100.00;100495.38;5058899;28;19931;-85
2022/08/04 02:49:08;;;;;;;;;;;;;;;15.34;100.00;100492.44;5044551;28;20252;-85
2022/08/04 02:51:38;;;;;;;;;;;;;;;15.14;100.00;100506.03;5044850;28;19931;-85
2022/08/04 02:54:05;;;;;;;;;;;;;;;15.29;100.00;100509.50;5053204;28;20401;-85
2022/08/04 02:56:33;;;;;;;;;;;;;;;15.40;100.00;100504.41;5042322;28;19924;-85
2022/08/04 02:59:04;;;;;;;;;;;;;;;15.35;100.00;100502.06;5058847;28;19946;-85
2022/08/04 03:01:31;;;;;;;;;;;;;;;15.25;100.00;100514.13;5054165;28;19925;-85
2022/08/04 03:04:14;;;;;;;;;;;;;;;15.13;100.00;100517.50;5048644;28;19924;-85
2022/08/04 03:07:09;;;;;;;;;;;;;;;15.09;100.00;100506.28;5050546;28;19978;-86
2022/08/04 03:10:02;;;;;;;;;;;;;;;15.26;100.00;100514.97;5053949;28;20279;-85
2022/08/04 03:12:38;;;;;;;;;;;;;;;15.30;100.00;100509.41;5061393;28;19931;-85
2022/08/04 03:15:05;;;;;;;;;;;;;;;15.31;100.00;100510.25;5051223;28;20260;-85
2022/08/04 03:17:50;;;;;;;;;;;;;;;15.12;100.00;100513.16;5054080;28;19925;-86
2022/08/04 03:20:40;;;;;;;;;;;;;;;15.10;100.00;100515.03;5055859;28;19979;-85
2022/08/04 03:23:19;;;;;;;;;;;;;;;15.22;100.00;100521.38;5063981;28;19975;-85
2022/08/04 03:26:00;;;;;;;;;;;;;;;15.30;100.00;100516.50;5055270;28;19931;-85
2022/08/04 03:28:29;;;;;;;;;;;;;;;15.30;100.00;100519.97;5057346;28;19925;-85
2022/08/04 03:30:56;;;;;;;;;;;;;;;15.30;100.00;100516.50;5062949;28;19925;-85
2022/08/04 03:33:23;;;;;;;;;;;;;;;15.22;100.00;100519.56;5056673;28;19925;-86
2022/08/04 03:35:52;;;;;;;;;;;;;;;15.10;100.00;100523.81;5062754;28;19924;-86
2022/08/04 03:38:38;;;;;;;;;;;;;;;14.95;100.00;100519.44;5059676;28;20371;-85
2022/08/04 03:41:34;;;;;;;;;;;;;;;15.00;100.00;100522.66;5052605;28;19925;-85
2022/08/04 03:44:26;;;;;;;;;;;;;;;14.87;100.00;100521.69;5048906;28;19925;-86
2022/08/04 03:47:13;;;;;;;;;;;;;;;14.73;100.00;100519.84;5061122;28;19929;-85
2022/08/04 03:49:40;;;;;;;;;;;;;;;14.93;100.00;100516.91;5044789;28;19932;-85
2022/08/04 03:55:01;;;;;;;;;;;;;;;14.72;100.00;100524.28;5050619;28;19925;-85
2022/08/04 03:57:28;;;;;;;;;;;;;;;14.75;100.00;100524.09;5061696;28;19925;-86
2022/08/04 04:00:01;;;;;;;;;;;;;;;14.85;100.00;100523.56;5055524;28;20427;-85
2022/08/04 04:02:27;;;;;;;;;;;;;;;14.66;100.00;100523.78;5056755;28;19932;-85
2022/08/04 04:05:00;;;;;;;;;;;;;;;14.84;100.00;100525.34;5054461;28;19924;-86
2022/08/04 04:07:31;;;;;;;;;;;;;;;14.91;100.00;100528.44;5059413;28;19932;-85
2022/08/04 04:10:07;;;;;;;;;;;;;;;14.83;100.00;100526.28;5050858;28;19931;-86
2022/08/04 04:12:43;;;;;;;;;;;;;;;14.99;100.00;100526.22;5053423;28;19928;-85
2022/08/04 04:15:19;;;;;;;;;;;;;;;15.13;100.00;100530.69;5053774;28;20262;-86
2022/08/04 04:17:46;;;;;;;;;;;;;;;15.21;100.00;100531.06;5058756;28;20405;-86
2022/08/04 04:20:24;;;;;;;;;;;;;;;15.21;100.00;100530.22;5057929;28;19929;-85
2022/08/04 04:23:08;;;;;;;;;;;;;;;15.21;100.00;100539.00;5055303;28;19931;-86
2022/08/04 04:25:41;;;;;;;;;;;;;;;15.16;100.00;100531.34;5056203;28;19925;-86
2022/08/04 04:28:07;;;;;;;;;;;;;;;15.27;100.00;100533.34;5053952;28;19931;-86
2022/08/04 04:31:12;;;;;;;;;;;;;;;15.17;100.00;100535.69;5051638;28;19939;-86
2022/08/04 04:34:02;;;;;;;;;;;;;;;15.20;100.00;100542.56;5051389;28;19935;-86
2022/08/04 04:36:34;;;;;;;;;;;;;;;15.20;100.00;100539.91;5038100;28;19931;-86
2022/08/04 04:39:20;;;;;;;;;;;;;;;15.18;100.00;100549.72;5060410;28;20385;-85
2022/08/04 04:41:54;;;;;;;;;;;;;;;15.45;100.00;100546.34;5056285;28;19932;-85
2022/08/04 04:44:27;;;;;;;;;;;;;;;15.41;100.00;100547.50;5051270;28;20007;-85
2022/08/04 04:47:14;;;;;;;;;;;;;;;15.29;100.00;100546.44;5051524;28;19924;-85
2022/08/04 04:49:44;;;;;;;;;;;;;;;15.16;100.00;100548.97;5047559;28;20570;-84
2022/08/04 04:52:22;;;;;;;;;;;;;;;15.16;100.00;100552.44;5052645;28;19924;-85
2022/08/04 04:55:09;;;;;;;;;;;;;;;15.21;100.00;100554.81;5056826;28;19925;-85
2022/08/04 04:57:36;;;;;;;;;;;;;;;14.81;100.00;100550.09;5052879;28;19929;-86
2022/08/04 05:00:22;;;;;;;;;;;;;;;15.02;100.00;100544.50;5047679;28;19932;-85
2022/08/04 05:03:04;;;;;;;;;;;;;;;15.16;100.00;100541.06;5051870;28;20019;-86
2022/08/04 05:05:53;;;;;;;;;;;;;;;15.09;100.00;100539.72;5055142;28;19975;-85
2022/08/04 05:08:20;;;;;;;;;;;;;;;14.86;100.00;100544.56;5057765;28;20315;-86
2022/08/04 05:11:25;;;;;;;;;;;;;;;14.90;100.00;100540.78;5050582;28;19924;-86
2022/08/04 05:13:53;;;;;;;;;;;;;;;14.98;100.00;100541.19;5054327;28;19925;-86
2022/08/04 05:16:42;;;;;;;;;;;;;;;15.10;100.00;100544.91;5048869;28;19924;-87
2022/08/04 05:19:38;;;;;;;;;;;;;;;15.02;100.00;100543.66;5059715;28;20326;-87
2022/08/04 05:22:07;;;;;;;;;;;;;;;15.08;100.00;100549.41;5017460;28;19969;-86
2022/08/04 05:24:41;;;;;;;;;;;;;;;15.09;100.00;100548.47;5046827;28;20278;-86
2022/08/04 05:27:15;;;;;;;;;;;;;;;15.19;100.00;100547.00;5051007;28;20299;-86
2022/08/04 05:29:45;;;;;;;;;;;;;;;15.12;100.00;100558.84;5053139;28;19925;-86
2022/08/04 05:32:15;;;;;;;;;;;;;;;15.15;100.00;100557.81;5051808;28;20650;-85
2022/08/04 05:34:44;;;;;;;;;;;;;;;15.13;100.00;100555.25;5048883;28;20011;-85
2022/08/04 05:37:13;;;;;;;;;;;;;;;14.88;100.00;100558.50;5071794;28;20259;-87
2022/08/04 05:39:43;;;;;;;;;;;;;;;14.81;100.00;100562.44;5057563;28;19929;-86
2022/08/04 05:42:13;;;;;;;;;;;;;;;14.98;100.00;100558.81;5059812;28;19928;-87
2022/08/04 05:44:41;;;;;;;;;;;;;;;15.10;100.00;100554.59;5061725;28;19928;-86
2022/08/04 05:47:14;;;;;;;;;;;;;;;14.96;100.00;100555.41;5060931;28;19971;-86
2022/08/04 05:49:42;;;;;;;;;;;;;;;15.09;100.00;100553.75;5080805;28;19924;-87
2022/08/04 05:52:09;;;;;;;;;;;;;;;15.15;100.00;100557.81;5060200;28;19935;-86
2022/08/04 05:54:37;;;;;;;;;;;;;;;15.09;100.00;100560.81;5062533;28;19946;-86
2022/08/04 05:57:04;;;;;;;;;;;;;;;15.07;100.00;100558.25;5065432;28;20355;-88
2022/08/04 05:59:33;;;;;;;;;;;;;;;14.93;100.00;100560.88;5066604;28;20322;-86
2022/08/04 06:02:01;;;;;;;;;;;;;;;15.10;100.00;100560.72;5059955;28;20398;-86
2022/08/04 06:04:33;;;;;;;;;;;;;;;15.15;100.00;100571.00;5073404;28;20028;-86
2022/08/04 06:07:00;;;;;;;;;;;;;;;15.31;100.00;100574.41;5068043;28;19928;-87
2022/08/04 06:09:27;;;;;;;;;;;;;;;15.34;100.00;100582.13;5058705;28;20007;-87
2022/08/04 06:11:58;;;;;;;;;;;;;;;15.34;100.00;100583.94;5058857;28;19928;-87
2022/08/04 06:14:37;;;;;;;;;;;;;;;15.23;100.00;100584.56;5068361;28;19925;-86
2022/08/04 06:17:05;;;;;;;;;;;;;;;15.32;100.00;100593.72;5083513;28;19929;-85
2022/08/04 06:19:54;;;;;;;;;;;;;;;15.11;100.00;100586.13;5074141;28;20406;-86
2022/08/04 06:22:32;;;;;;;;;;;;;;;15.31;100.00;100590.22;5064099;28;19931;-86
2022/08/04 06:24:59;;;;;;;;;;;;;;;15.16;100.00;100596.44;5057792;28;19925;-87
2022/08/04 06:27:28;;;;;;;;;;;;;;;15.20;100.00;100592.66;5065576;28;19928;-87
2022/08/04 06:29:56;;;;;;;;;;;;;;;15.34;100.00;100595.31;5074656;28;19928;-87
2022/08/04 06:33:25;;;;;;;;;;;;;;;15.37;100.00;100595.16;5069814;28;19931;-88
2022/08/04 06:35:30;;;;;;;;;;;;;;;15.45;100.00;100591.19;5059902;28;19924;-88
2022/08/04 06:37:58;;;;;;;;;;;;;;;15.47;100.00;100591.94;5076861;28;19931;-87
2022/08/04 06:40:27;;;;;;;;;;;;;;;15.47;100.00;100595.44;5068070;28;19931;-88
2022/08/04 06:43:06;;;;;;;;;;;;;;;15.48;100.00;100589.22;5076857;28;19925;-88
2022/08/04 06:45:34;;;;;;;;;;;;;;;15.34;100.00;100587.41;5074504;28;19935;-86
2022/08/04 06:48:02;;;;;;;;;;;;;;;15.41;100.00;100589.69;5068537;28;19935;-88
2022/08/04 06:50:30;;;;;;;;;;;;;;;15.26;100.00;100597.56;5061340;28;19959;-86
2022/08/04 06:53:17;;;;;;;;;;;;;;;15.20;100.00;100597.94;5071684;28;19924;-86
2022/08/04 06:55:45;;;;;;;;;;;;;;;15.21;100.00;100604.06;5080995;28;19939;-87
2022/08/04 06:58:16;;;;;;;;;;;;;;;15.27;100.00;100598.44;5075049;28;20370;-86
2022/08/04 07:00:44;;;;;;;;;;;;;;;15.33;100.00;100595.41;5075144;28;20301;-85
2022/08/04 07:03:12;;;;;;;;;;;;;;;15.32;100.00;100599.84;5076899;28;19962;-86
2022/08/04 07:05:39;;;;;;;;;;;;;;;15.38;100.00;100607.38;5074045;28;19935;-86
2022/08/04 07:08:06;;;;;;;;;;;;;;;15.42;100.00;100610.69;5062244;28;19931;-85
2022/08/04 07:10:33;;;;;;;;;;;;;;;15.33;100.00;100613.88;5067382;28;19924;-86
2022/08/04 07:13:01;;;;;;;;;;;;;;;15.11;100.00;100604.59;5067873;28;19925;-85
2022/08/04 07:15:28;;;;;;;;;;;;;;;15.37;100.00;100600.44;5073442;28;20362;-85
2022/08/04 07:17:58;;;;;;;;;;;;;;;15.45;100.00;100599.13;5057325;28;20019;-85
2022/08/04 07:20:26;;;;;;;;;;;;;;;15.56;100.00;100597.53;5057241;28;19977;-85
2022/08/04 07:23:10;;;;;;;;;;;;;;;15.60;100.00;100595.56;5075166;28;19960;-85
2022/08/04 07:25:39;;;;;;;;;;;;;;;15.75;100.00;100605.19;5073076;28;20011;-86
2022/08/04 07:28:28;;;;;;;;;;;;;;;15.81;100.00;100613.69;5065625;28;19925;-85
2022/08/04 07:30:56;;;;;;;;;;;;;;;15.92;100.00;100619.16;5074455;28;19986;-84
2022/08/04 07:33:24;;;;;;;;;;;;;;;15.85;100.00;100613.41;5055791;28;19929;-85
2022/08/04 07:35:55;;;;;;;;;;;;;;;15.99;100.00;100624.88;5037109;28;19968;-85
2022/08/04 07:38:34;;;;;;;;;;;;;;;16.08;100.00;100624.34;5040395;28;19925;-85
2022/08/04 07:41:04;;;;;;;;;;;;;;;15.84;100.00;100616.13;5049569;28;20004;-85
2022/08/04 07:43:51;;;;;;;;;;;;;;;15.77;100.00;100620.09;5051058;28;19982;-84
2022/08/04 07:46:18;;;;;;;;;;;;;;;15.77;100.00;100609.53;5036636;28;19924;-85
2022/08/04 07:48:45;;;;;;;;;;;;;;;16.09;100.00;100611.00;5036267;28;19960;-85
2022/08/04 07:51:12;;;;;;;;;;;;;;;16.17;100.00;100609.72;5050854;28;19947;-85
2022/08/04 07:53:39;;;;;;;;;;;;;;;16.36;100.00;100614.66;5045501;28;20294;-85
2022/08/04 07:56:23;;;;;;;;;;;;;;;16.34;100.00;100627.97;5034479;28;20080;-85
2022/08/04 07:58:54;;;;;;;;;;;;;;;16.47;100.00;100628.06;5059773;28;20401;-85
2022/08/04 08:02:13;;;;;;;;;;;;;;;16.25;100.00;100636.47;5036510;28;20481;-85
2022/08/04 08:04:21;;;;;;;;;;;;;;;16.39;100.00;100635.59;5037933;28;20333;-84
2022/08/04 08:06:50;;;;;;;;;;;;;;;16.55;100.00;100624.91;5053053;28;19997;-85
2022/08/04 08:09:17;;;;;;;;;;;;;;;16.68;100.00;100645.16;5058373;28;20460;-85
2022/08/04 08:11:48;;;;;;;;;;;;;;;16.64;100.00;100648.97;5049531;28;20373;-85
2022/08/04 08:14:35;;;;;;;;;;;;;;;16.31;100.00;100644.88;5063950;28;20282;-85
2022/08/04 08:17:04;;;;;;;;;;;;;;;16.27;100.00;100647.78;5037440;28;20008;-85
2022/08/04 08:19:34;;;;;;;;;;;;;;;16.41;100.00;100653.03;5063632;28;19924;-84
2022/08/04 08:22:05;;;;;;;;;;;;;;;16.39;100.00;100652.31;5050174;28;19924;-85
2022/08/04 08:24:45;;;;;;;;;;;;;;;16.33;100.00;100653.53;5050982;28;19928;-85
2022/08/04 08:27:12;;;;;;;;;;;;;;;16.42;100.00;100656.56;5036259;28;19925;-84
2022/08/04 08:29:40;;;;;;;;;;;;;;;16.60;100.00;100662.47;5045143;28;19928;-85
2022/08/04 08:32:11;;;;;;;;;;;;;;;16.60;100.00;100662.47;5052536;28;19932;-84
2022/08/04 08:34:39;;;;;;;;;;;;;;;16.59;100.00;100664.25;5056494;28;20055;-84
2022/08/04 08:37:12;;;;;;;;;;;;;;;16.54;100.00;100661.06;5035586;28;19931;-85
2022/08/04 08:39:59;;;;;;;;;;;;;;;16.57;100.00;100655.56;5035884;28;19951;-86
2022/08/04 08:42:41;;;;;;;;;;;;;;;16.30;100.00;100672.22;5005302;28;20028;-84
2022/08/04 08:45:33;;;;;;;;;;;;;;;16.48;100.00;100670.25;5034045;28;20386;-85
2022/08/04 08:48:19;;;;;;;;;;;;;;;16.59;100.00;100674.84;5057515;28;19931;-85
2022/08/04 08:50:53;;;;;;;;;;;;;;;16.62;100.00;100677.25;5060174;28;20380;-86
2022/08/04 08:53:29;;;;;;;;;;;;;;;16.59;100.00;100685.41;5032998;28;20290;-86
2022/08/04 08:56:04;;;;;;;;;;;;;;;16.70;100.00;100688.19;5052275;28;19924;-86
2022/08/04 08:58:37;;;;;;;;;;;;;;;16.53;100.00;100688.44;5035641;28;19926;-85
2022/08/04 09:01:22;;;;;;;;;;;;;;;16.45;100.00;100699.50;5056145;28;19935;-85
2022/08/04 09:03:52;;;;;;;;;;;;;;;16.44;100.00;100699.59;5054699;28;19925;-85
2022/08/04 09:06:40;;;;;;;;;;;;;;;16.64;100.00;100688.63;5050016;28;19925;-85
2022/08/04 09:09:07;;;;;;;;;;;;;;;16.43;100.00;100697.88;5054892;28;19947;-84
2022/08/04 09:11:57;;;;;;;;;;;;;;;16.48;100.00;100699.31;5035222;28;19960;-84
2022/08/04 09:14:27;;;;;;;;;;;;;;;16.31;100.00;100704.78;5028217;28;19935;-85
2022/08/04 09:16:59;;;;;;;;;;;;;;;16.71;100.00;100686.41;5052221;28;20602;-85
2022/08/04 09:19:32;;;;;;;;;;;;;;;16.79;100.00;100697.34;5034892;28;20370;-86
2022/08/04 09:22:07;;;;;;;;;;;;;;;16.92;100.00;100699.22;5042232;28;19929;-85
2022/08/04 09:24:38;;;;;;;;;;;;;;;17.06;100.00;100693.88;5048133;28;20015;-84
2022/08/04 09:27:10;;;;;;;;;;;;;;;17.32;100.00;100689.53;5051457;28;19925;-84
2022/08/04 09:29:48;;;;;;;;;;;;;;;17.55;100.00;100690.63;5052478;28;19925;-85
2022/08/04 09:32:34;;;;;;;;;;;;;;;17.77;100.00;100695.28;5051955;28;20367;-85
2022/08/04 09:35:09;;;;;;;;;;;;;;;17.99;100.00;100700.00;5050409;28;20264;-85
2022/08/04 09:37:43;;;;;;;;;;;;;;;18.54;100.00;100686.47;5051133;28;19975;-85
2022/08/04 09:40:30;;;;;;;;;;;;;;;18.93;100.00;100693.34;5034711;28;19935;-84
2022/08/04 09:43:26;;;;;;;;;;;;;;;18.72;100.00;100698.38;5051606;28;19925;-85
2022/08/04 09:46:18;;;;;;;;;;;;;;;18.69;100.00;100698.59;5050517;28;20489;-85
2022/08/04 09:48:45;;;;;;;;;;;;;;;17.89;100.00;100698.94;5051242;28;20420;-85
2022/08/04 09:51:35;;;;;;;;;;;;;;;18.42;100.00;100697.94;5049921;28;20393;-85
2022/08/04 09:54:37;;;;;;;;;;;;;;;18.83;100.00;100700.28;5013670;28;19925;-86
2022/08/04 09:57:10;;;;;;;;;;;;;;;19.13;100.00;100691.88;5061417;28;19935;-86
2022/08/04 09:59:39;;;;;;;;;;;;;;;19.21;100.00;100693.09;5050835;28;19925;-86
2022/08/04 10:02:08;;;;;;;;;;;;;;;18.50;100.00;100691.16;5050596;28;19925;-85
2022/08/04 10:04:35;;;;;;;;;;;;;;;19.50;100.00;100697.09;5033511;28;20019;-85
2022/08/04 10:07:20;;;;;;;;;;;;;;;19.31;100.00;100692.31;5051106;28;20354;-86
2022/08/04 10:10:00;;;;;;;;;;;;;;;19.59;100.00;100700.84;5037104;28;19932;-85
2022/08/04 10:12:32;;;;;;;;;;;;;;;19.01;99.43;100705.22;5049996;28;19931;-86
2022/08/04 10:15:02;;;;;;;;;;;;;;;18.66;100.00;100703.28;5050824;28;20313;-86
2022/08/04 10:17:29;;;;;;;;;;;;;;;18.51;100.00;100708.72;5053396;28;19939;-86
2022/08/04 10:20:03;;;;;;;;;;;;;;;18.37;100.00;100709.72;5051873;28;19928;-85
2022/08/04 10:22:32;;;;;;;;;;;;;;;18.44;100.00;100704.81;5053267;28;19928;-85
2022/08/04 10:25:22;;;;;;;;;;;;;;;18.55;100.00;100707.53;5048466;28;19924;-86
2022/08/04 10:28:11;;;;;;;;;;;;;;;18.27;100.00;100715.78;5049003;28;19925;-85
2022/08/04 10:30:39;;;;;;;;;;;;;;;18.73;100.00;100710.69;5043599;28;20701;-85
2022/08/04 10:33:25;;;;;;;;;;;;;;;19.39;100.00;100712.97;5052176;28;19932;-86
2022/08/04 10:36:00;;;;;;;;;;;;;;;19.18;95.21;100715.44;5069696;28;19931;-85
2022/08/04 10:38:29;;;;;;;;;;;;;;;19.11;98.89;100720.34;5053574;28;19925;-85
2022/08/04 10:41:10;;;;;;;;;;;;;;;18.97;95.63;100724.00;5075841;28;19924;-85
2022/08/04 10:43:55;;;;;;;;;;;;;;;18.89;99.27;100729.03;5076161;28;19932;-85
2022/08/04 10:46:25;;;;;;;;;;;;;;;18.42;89.74;100727.13;5070287;28;19961;-85
2022/08/04 10:48:57;;;;;;;;;;;;;;;18.56;87.80;100727.81;5057436;28;19930;-86
2022/08/04 10:51:42;;;;;;;;;;;;;;;18.97;92.43;100731.97;5082007;28;20035;-85
2022/08/04 10:54:30;;;;;;;;;;;;;;;18.91;87.45;100729.78;5082834;28;20418;-85
2022/08/04 10:57:00;;;;;;;;;;;;;;;18.99;80.98;100736.31;5073501;28;19924;-86
2022/08/04 10:59:29;;;;;;;;;;;;;;;18.96;76.70;100735.59;5074108;28;19931;-86
2022/08/04 11:02:03;;;;;;;;;;;;;;;19.01;77.98;100739.72;5075195;28;19924;-85
2022/08/04 11:04:52;;;;;;;;;;;;;;;19.04;79.52;100745.63;5066302;28;19951;-86
2022/08/04 11:07:20;;;;;;;;;;;;;;;18.69;78.38;100749.00;5057134;28;19925;-85
2022/08/04 11:09:47;;;;;;;;;;;;;;;18.73;76.97;100744.31;5077729;28;19986;-86
2022/08/04 11:12:24;;;;;;;;;;;;;;;19.29;80.98;100743.84;5076029;28;19934;-86
2022/08/04 11:14:50;;;;;;;;;;;;;;;19.71;75.93;100736.25;5060958;28;19924;-85
2022/08/04 11:17:32;;;;;;;;;;;;;;;19.53;72.81;100742.00;5082962;28;20416;-86
2022/08/04 11:20:17;;;;;;;;;;;;;;;19.88;73.01;100745.63;5074478;28;20439;-87
2022/08/04 11:23:10;;;;;;;;;;;;;;;19.95;73.29;100741.53;5068720;28;19981;-86
2022/08/04 11:25:49;;;;;;;;;;;;;;;20.21;74.24;100744.81;5072135;28;19925;-87
2022/08/04 11:28:17;;;;;;;;;;;;;;;20.11;71.69;100746.50;5057743;28;20014;-86
2022/08/04 11:30:52;;;;;;;;;;;;;;;20.09;70.30;100740.47;5074347;28;19925;-86
2022/08/04 11:33:28;;;;;;;;;;;;;;;20.36;66.95;100740.13;5051289;28;19924;-85
2022/08/04 11:36:15;;;;;;;;;;;;;;;20.03;65.71;100740.94;5052458;28;19935;-86
2022/08/04 11:39:00;;;;;;;;;;;;;;;20.04;64.51;100742.63;5029384;28;19925;-86
2022/08/04 11:41:37;;;;;;;;;;;;;;;19.84;64.66;100750.31;5060821;28;19925;-87
2022/08/04 11:44:05;;;;;;;;;;;;;;;19.47;63.96;100760.19;5033244;28;20032;-85
2022/08/04 11:46:42;;;;;;;;;;;;;;;18.97;67.17;100778.88;5065418;28;19924;-85
2022/08/04 11:49:14;;;;;;;;;;;;;;;18.67;71.18;100779.25;5068990;28;19924;-87
2022/08/04 11:51:42;;;;;;;;;;;;;;;18.26;70.58;100788.28;5050596;28;19925;-87
2022/08/04 11:54:10;;;;;;;;;;;;;;;17.92;80.66;100790.56;5048854;28;20015;-86
2022/08/04 11:56:37;;;;;;;;;;;;;;;17.60;89.36;100797.06;5053724;28;20286;-87
2022/08/04 11:59:06;;;;;;;;;;;;;;;17.95;88.22;100795.66;5050222;28;19924;-87
2022/08/04 12:01:45;;;;;;;;;;;;;;;18.12;86.72;100799.84;5054315;28;19932;-87
2022/08/04 12:04:11;;;;;;;;;;;;;;;17.99;88.59;100797.19;5057141;28;19948;-87
2022/08/04 12:06:47;;;;;;;;;;;;;;;18.05;84.78;100793.25;5052575;28;19971;-87
2022/08/04 12:09:34;;;;;;;;;;;;;;;18.31;86.04;100794.09;5037852;28;19943;-88
2022/08/04 12:12:12;;;;;;;;;;;;;;;19.07;84.76;100784.34;5052643;28;19935;-87
2022/08/04 12:14:39;;;;;;;;;;;;;;;19.24;85.74;100794.59;5043922;28;20390;-87
2022/08/04 12:17:05;;;;;;;;;;;;;;;19.61;81.33;100788.38;5044257;28;19931;-87
2022/08/04 12:19:47;;;;;;;;;;;;;;;19.79;73.87;100779.03;5053855;28;19947;-87
2022/08/04 12:22:36;;;;;;;;;;;;;;;19.28;76.49;100796.09;5051432;28;19935;-87
2022/08/04 12:25:08;;;;;;;;;;;;;;;19.59;74.71;100798.28;5053268;28;20279;-87
2022/08/04 12:27:38;;;;;;;;;;;;;;;19.78;76.14;100797.75;5044516;28;19935;-88
2022/08/04 12:30:06;;;;;;;;;;;;;;;19.65;71.34;100801.28;5040694;28;19963;-88
2022/08/04 12:33:03;;;;;;;;;;;;;;;19.57;74.13;100806.34;5051928;28;19948;-87
2022/08/04 12:35:29;;;;;;;;;;;;;;;20.12;72.92;100803.19;5038221;28;19935;-87
2022/08/04 12:38:01;;;;;;;;;;;;;;;20.26;68.61;100806.47;5053551;28;19928;-87
2022/08/04 12:40:37;;;;;;;;;;;;;;;20.45;70.89;100813.84;5052237;28;19931;-87
2022/08/04 12:43:19;;;;;;;;;;;;;;;19.85;66.29;100807.81;5052050;28;19925;-87
2022/08/04 12:45:48;;;;;;;;;;;;;;;20.43;68.36;100817.59;5051812;28;19925;-87
2022/08/04 12:48:16;;;;;;;;;;;;;;;20.44;68.21;100813.97;5063971;28;20301;-87
2022/08/04 12:50:48;;;;;;;;;;;;;;;20.19;63.97;100817.69;5063841;28;19932;-87
2022/08/04 12:53:16;;;;;;;;;;;;;;;20.43;66.08;100814.94;5063496;28;20019;-86
2022/08/04 12:55:58;;;;;;;;;;;;;;;21.10;63.87;100816.75;5055253;28;19924;-88
2022/08/04 12:58:28;;;;;;;;;;;;;;;21.59;61.75;100812.75;5041992;28;19925;-87
2022/08/04 13:01:18;;;;;;;;;;;;;;;21.61;57.45;100820.63;5042264;28;20264;-86
2022/08/04 13:04:14;;;;;;;;;;;;;;;21.45;58.49;100814.84;5052016;28;19924;-87
2022/08/04 13:06:42;;;;;;;;;;;;;;;20.91;58.38;100828.03;5036413;28;20294;-87
2022/08/04 13:09:15;;;;;;;;;;;;;;;21.09;62.77;100831.03;5053012;28;20016;-87
2022/08/04 13:11:49;;;;;;;;;;;;;;;20.90;60.30;100833.47;5037363;28;19925;-88